Time;durP1;ratioP1;P1;durP2;ratioP2;P2;SDS_P1;SDS_P2;PMS_P1;PMS_P2;Temp;Humidity;BMP_temperature;BMP_pressure;BME280_temperature;BME280_humidity;BME280_pressure;Samples;Min_cycle;Max_cycle;Signal;HPM_P1;HPM_P2
2022/04/19 00:00:42;;;;;;;;;;;;;;;10.27;52.08;100949.66;5053506;28;19935;-76
2022/04/19 00:03:07;;;;;;;;;;;;;;;10.18;51.77;100944.59;5050277;28;20023;-76
2022/04/19 00:05:33;;;;;;;;;;;;;;;10.32;52.02;100947.81;5045135;28;20360;-76
2022/04/19 00:07:59;;;;;;;;;;;;;;;10.22;52.76;100955.81;5047626;28;20413;-76
2022/04/19 00:10:28;;;;;;;;;;;;;;;9.92;52.78;100949.38;5050058;28;20332;-76
2022/04/19 00:12:54;;;;;;;;;;;;;;;10.05;53.03;100958.66;5050209;28;19924;-76
2022/04/19 00:15:21;;;;;;;;;;;;;;;10.04;52.76;100945.72;5048584;28;20447;-76
2022/04/19 00:17:47;;;;;;;;;;;;;;;10.18;52.55;100947.22;5053288;28;19994;-73
2022/04/19 00:20:12;;;;;;;;;;;;;;;10.18;52.93;100946.34;5050960;28;20274;-81
2022/04/19 00:22:38;;;;;;;;;;;;;;;10.12;52.22;100949.91;5065005;28;19947;-77
2022/04/19 00:25:06;;;;;;;;;;;;;;;10.12;52.74;100946.44;5051099;28;19960;-77
2022/04/19 00:27:31;;;;;;;;;;;;;;;10.23;51.70;100942.78;5040030;28;19931;-77
2022/04/19 00:29:58;;;;;;;;;;;;;;;9.95;52.36;100951.06;5055144;28;19929;-77
2022/04/19 00:32:24;;;;;;;;;;;;;;;9.81;52.64;100944.28;5054112;28;20019;-73
2022/04/19 00:34:49;;;;;;;;;;;;;;;10.06;53.02;100951.72;5054743;28;20440;-73
2022/04/19 00:37:15;;;;;;;;;;;;;;;10.08;52.30;100942.19;5057533;28;19917;-73
2022/04/19 00:39:40;;;;;;;;;;;;;;;10.06;52.67;100939.63;5056173;28;21854;-73
2022/04/19 00:42:07;;;;;;;;;;;;;;;9.89;52.32;100933.81;5057956;28;19978;-73
2022/04/19 00:44:37;;;;;;;;;;;;;;;9.73;52.82;100935.78;5052938;28;20007;-76
2022/04/19 00:47:04;;;;;;;;;;;;;;;9.95;52.50;100938.94;5048337;28;19964;-77
2022/04/19 00:49:33;;;;;;;;;;;;;;;9.86;51.94;100929.53;5060705;28;19929;-77
2022/04/19 00:51:59;;;;;;;;;;;;;;;9.89;51.93;100932.09;5050130;28;19925;-81
2022/04/19 00:54:24;;;;;;;;;;;;;;;9.75;52.89;100925.38;5057427;28;19927;-77
2022/04/19 00:56:50;;;;;;;;;;;;;;;9.85;52.77;100932.13;5050084;28;19931;-77
2022/04/19 00:59:15;;;;;;;;;;;;;;;9.73;52.69;100929.72;5054337;28;19924;-81
2022/04/19 01:01:40;;;;;;;;;;;;;;;9.77;52.34;100923.63;5053821;28;19972;-81
2022/04/19 01:04:06;;;;;;;;;;;;;;;9.46;53.26;100922.34;5063814;28;19932;-81
2022/04/19 01:06:31;;;;;;;;;;;;;;;9.66;52.80;100923.75;5052126;28;19975;-81
2022/04/19 01:08:57;;;;;;;;;;;;;;;9.80;52.26;100919.25;5053877;28;19983;-81
2022/04/19 01:14:06;;;;;;;;;;;;;;;9.53;53.17;100924.84;5050259;28;19931;-77
2022/04/19 01:16:32;;;;;;;;;;;;;;;9.50;53.28;100914.50;5052791;28;19952;-73
2022/04/19 01:18:57;;;;;;;;;;;;;;;9.48;53.06;100921.47;5050828;28;19920;-76
2022/04/19 01:21:23;;;;;;;;;;;;;;;9.71;53.27;100910.72;5051869;28;19979;-76
2022/04/19 01:23:49;;;;;;;;;;;;;;;9.74;52.92;100921.94;5049367;28;19975;-76
2022/04/19 01:26:17;;;;;;;;;;;;;;;9.87;52.13;100912.19;5050633;28;20330;-76
2022/04/19 01:28:42;;;;;;;;;;;;;;;9.71;51.93;100911.59;5054137;28;19970;-73
2022/04/19 01:31:09;;;;;;;;;;;;;;;9.73;52.21;100916.75;5052599;28;20387;-73
2022/04/19 01:33:34;;;;;;;;;;;;;;;9.53;52.51;100914.47;5053183;28;20171;-80
2022/04/19 01:36:00;;;;;;;;;;;;;;;9.62;52.75;100910.88;5053145;28;19932;-81
2022/04/19 01:38:25;;;;;;;;;;;;;;;9.71;52.69;100911.59;5055665;28;19975;-77
2022/04/19 01:40:50;;;;;;;;;;;;;;;9.73;52.53;100909.81;5050864;28;19936;-77
2022/04/19 01:43:16;;;;;;;;;;;;;;;9.65;52.77;100909.09;5056753;28;19917;-73
2022/04/19 01:45:41;;;;;;;;;;;;;;;9.72;52.81;100907.28;5057985;28;19921;-73
2022/04/19 01:48:08;;;;;;;;;;;;;;;9.73;52.53;100904.63;5052496;28;19971;-73
2022/04/19 01:50:36;;;;;;;;;;;;;;;9.73;52.82;100914.16;5053025;28;20314;-73
2022/04/19 01:53:02;;;;;;;;;;;;;;;9.70;53.14;100904.69;5063953;28;20405;-73
2022/04/19 01:55:27;;;;;;;;;;;;;;;9.68;52.29;100910.78;5054823;28;19962;-73
2022/04/19 01:57:54;;;;;;;;;;;;;;;9.26;53.65;100915.69;5033538;28;19925;-73
2022/04/19 02:00:22;;;;;;;;;;;;;;;9.16;54.30;100918.41;5052932;28;19979;-76
2022/04/19 02:02:48;;;;;;;;;;;;;;;9.15;53.60;100917.59;5055211;28;20020;-77
2022/04/19 02:05:13;;;;;;;;;;;;;;;9.21;54.06;100914.06;5053894;28;20019;-73
2022/04/19 02:07:40;;;;;;;;;;;;;;;9.13;54.15;100908.94;5054798;28;19929;-73
2022/04/19 02:10:06;;;;;;;;;;;;;;;9.36;53.72;100912.09;5046966;28;20392;-73
2022/04/19 02:12:31;;;;;;;;;;;;;;;9.38;53.39;100909.50;5060129;28;19920;-73
2022/04/19 02:14:56;;;;;;;;;;;;;;;9.43;53.67;100914.59;5050928;28;20373;-73
2022/04/19 02:17:23;;;;;;;;;;;;;;;9.24;53.21;100901.03;5056264;28;19924;-77
2022/04/19 02:19:49;;;;;;;;;;;;;;;9.34;53.64;100910.41;5053245;28;20566;-77
2022/04/19 02:22:15;;;;;;;;;;;;;;;9.16;53.32;100908.03;5056794;28;19923;-77
2022/04/19 02:24:40;;;;;;;;;;;;;;;9.04;53.81;100905.63;5058233;28;19921;-77
2022/04/19 02:27:06;;;;;;;;;;;;;;;9.25;53.45;100903.59;5057395;28;20370;-77
2022/04/19 02:29:32;;;;;;;;;;;;;;;9.15;53.99;100908.94;5056592;28;19928;-77
2022/04/19 02:31:57;;;;;;;;;;;;;;;9.30;53.59;100899.25;5052925;28;19970;-80
2022/04/19 02:34:23;;;;;;;;;;;;;;;9.01;53.93;100900.50;5052193;28;20281;-73
2022/04/19 02:36:48;;;;;;;;;;;;;;;8.86;54.35;100904.09;5053806;28;19932;-73
2022/04/19 02:39:14;;;;;;;;;;;;;;;8.87;54.69;100903.22;5053458;28;19931;-73
2022/04/19 02:41:39;;;;;;;;;;;;;;;8.96;54.21;100894.50;5052522;28;20447;-73
2022/04/19 02:44:06;;;;;;;;;;;;;;;9.11;53.90;100895.16;5051637;28;19925;-76
2022/04/19 02:46:33;;;;;;;;;;;;;;;9.10;53.55;100896.03;5051895;28;19925;-81
2022/04/19 02:48:58;;;;;;;;;;;;;;;9.01;53.71;100890.13;5052195;28;19925;-77
2022/04/19 02:51:24;;;;;;;;;;;;;;;9.29;53.02;100892.31;5048318;28;19924;-77
2022/04/19 02:53:49;;;;;;;;;;;;;;;8.99;53.67;100894.44;5058017;28;19982;-73
2022/04/19 02:56:15;;;;;;;;;;;;;;;8.74;54.42;100896.50;5052804;28;19985;-73
2022/04/19 02:58:40;;;;;;;;;;;;;;;9.10;53.63;100892.56;5052205;28;19925;-73
2022/04/19 03:01:06;;;;;;;;;;;;;;;8.94;53.95;100891.06;5050500;28;19932;-81
2022/04/19 03:03:31;;;;;;;;;;;;;;;8.71;54.74;100899.94;5038053;28;19924;-81
2022/04/19 03:05:57;;;;;;;;;;;;;;;8.86;54.36;100895.50;5048107;28;19920;-81
2022/04/19 03:08:24;;;;;;;;;;;;;;;9.05;53.84;100889.19;5056152;28;20320;-77
2022/04/19 03:10:49;;;;;;;;;;;;;;;9.20;53.36;100887.25;5033633;28;19952;-77
2022/04/19 03:13:16;;;;;;;;;;;;;;;9.02;53.18;100887.50;5052653;28;20916;-77
2022/04/19 03:15:42;;;;;;;;;;;;;;;8.58;54.10;100884.59;5053101;28;19927;-77
2022/04/19 03:18:07;;;;;;;;;;;;;;;8.85;54.19;100879.09;5051324;28;19925;-77
2022/04/19 03:20:32;;;;;;;;;;;;;;;8.94;53.70;100876.38;5054122;28;19920;-77
2022/04/19 03:28:25;;;;;;;;;;;;;;;8.41;54.41;100886.50;5050059;28;20003;-76
2022/04/19 03:30:51;;;;;;;;;;;;;;;8.73;54.44;100894.78;5054306;28;20023;-76
2022/04/19 03:33:16;;;;;;;;;;;;;;;8.64;54.72;100885.38;5056937;28;20118;-77
2022/04/19 03:35:42;;;;;;;;;;;;;;;8.76;54.07;100894.75;5051799;28;19937;-77
2022/04/19 03:38:08;;;;;;;;;;;;;;;8.81;53.46;100895.53;5033255;28;19960;-80
2022/04/19 03:40:34;;;;;;;;;;;;;;;8.98;52.90;100890.16;5049103;28;19934;-73
2022/04/19 03:42:59;;;;;;;;;;;;;;;8.93;53.00;100894.53;5056541;28;20011;-76
2022/04/19 03:45:24;;;;;;;;;;;;;;;9.03;53.02;100890.97;5040235;28;20369;-76
2022/04/19 03:47:50;;;;;;;;;;;;;;;8.85;54.11;100894.63;5051129;28;20381;-76
2022/04/19 03:50:16;;;;;;;;;;;;;;;8.90;54.43;100887.66;5051905;28;19926;-76
2022/04/19 03:52:41;;;;;;;;;;;;;;;9.03;54.41;100893.56;5051717;28;19920;-76
2022/04/19 03:55:07;;;;;;;;;;;;;;;8.80;54.25;100889.50;5050324;28;20308;-76
2022/04/19 03:57:32;;;;;;;;;;;;;;;8.63;54.98;100883.66;5053067;28;19920;-77
2022/04/19 03:59:57;;;;;;;;;;;;;;;8.91;54.60;100884.19;5038688;28;19921;-77
2022/04/19 04:02:23;;;;;;;;;;;;;;;8.57;54.79;100888.03;5049028;28;20289;-77
2022/04/19 04:04:48;;;;;;;;;;;;;;;8.65;54.57;100892.25;5050479;28;19928;-77
2022/04/19 04:07:14;;;;;;;;;;;;;;;8.58;54.92;100885.44;5048111;28;19925;-77
2022/04/19 04:09:39;;;;;;;;;;;;;;;8.80;53.79;100888.63;5049706;28;19960;-77
2022/04/19 04:12:05;;;;;;;;;;;;;;;8.98;53.54;100888.41;5052731;28;19960;-80
2022/04/19 04:14:31;;;;;;;;;;;;;;;8.55;54.00;100892.38;5052329;28;19974;-81
2022/04/19 04:16:56;;;;;;;;;;;;;;;8.67;53.34;100889.66;5053151;28;19925;-80
2022/04/19 04:19:22;;;;;;;;;;;;;;;8.57;53.54;100894.06;5044959;28;19929;-80
2022/04/19 04:21:47;;;;;;;;;;;;;;;8.53;54.21;100891.56;5042839;28;19935;-77
2022/04/19 04:24:12;;;;;;;;;;;;;;;8.77;53.58;100897.28;5041531;28;19944;-77
2022/04/19 04:26:38;;;;;;;;;;;;;;;8.86;53.57;100904.09;5042761;28;19924;-77
2022/04/19 04:29:03;;;;;;;;;;;;;;;8.59;53.91;100904.44;5047722;28;20082;-81
2022/04/19 04:31:28;;;;;;;;;;;;;;;8.67;53.27;100900.88;5026887;28;19920;-73
2022/04/19 04:33:54;;;;;;;;;;;;;;;8.78;53.27;100901.63;5058110;28;19987;-77
2022/04/19 04:36:19;;;;;;;;;;;;;;;8.68;53.17;100907.75;5054041;28;19928;-73
2022/04/19 04:38:45;;;;;;;;;;;;;;;8.72;53.29;100908.59;5026780;28;19929;-77
2022/04/19 04:41:10;;;;;;;;;;;;;;;8.72;52.81;100912.03;5032432;28;19995;-77
2022/04/19 04:43:37;;;;;;;;;;;;;;;8.69;53.30;100911.22;5053005;28;19921;-77
2022/04/19 04:51:30;;;;;;;;;;;;;;;8.65;52.71;100912.97;5050773;28;19936;-77
2022/04/19 04:53:55;;;;;;;;;;;;;;;8.58;52.19;100900.97;5048616;28;20613;-77
2022/04/19 04:56:23;;;;;;;;;;;;;;;8.74;51.77;100912.03;5049808;28;20392;-77
2022/04/19 04:58:48;;;;;;;;;;;;;;;8.87;51.95;100915.31;5045810;28;19940;-73
2022/04/19 05:01:13;;;;;;;;;;;;;;;8.55;52.53;100911.38;5048154;28;19928;-76
2022/04/19 05:03:39;;;;;;;;;;;;;;;8.64;51.86;100906.09;5054204;28;20405;-81
2022/04/19 05:06:04;;;;;;;;;;;;;;;8.74;51.90;100907.69;5044004;28;19975;-77
2022/04/19 05:08:30;;;;;;;;;;;;;;;8.58;52.31;100906.16;5042559;28;20074;-73
2022/04/19 05:10:55;;;;;;;;;;;;;;;8.83;51.34;100901.53;5048813;28;19929;-73
2022/04/19 05:13:20;;;;;;;;;;;;;;;8.71;51.23;100904.31;5049472;28;19921;-80
2022/04/19 05:15:45;;;;;;;;;;;;;;;8.77;51.26;100912.84;5047581;28;19936;-77
2022/04/19 05:18:11;;;;;;;;;;;;;;;8.48;51.65;100912.28;5048035;28;19932;-76
2022/04/19 05:20:36;;;;;;;;;;;;;;;8.39;52.79;100908.94;5050928;28;19925;-77
2022/04/19 05:23:02;;;;;;;;;;;;;;;8.60;53.04;100913.91;5028418;28;20282;-77
2022/04/19 05:25:27;;;;;;;;;;;;;;;8.77;53.08;100910.25;5059167;28;19913;-77
2022/04/19 05:27:52;;;;;;;;;;;;;;;8.88;52.26;100907.56;5056101;28;19952;-81
2022/04/19 05:30:18;;;;;;;;;;;;;;;8.95;51.85;100910.94;5064675;28;19928;-74
2022/04/19 05:32:43;;;;;;;;;;;;;;;8.60;53.06;100903.53;5057694;28;19921;-73
2022/04/19 05:35:08;;;;;;;;;;;;;;;8.77;52.96;100906.81;5055008;28;19928;-73
2022/04/19 05:37:37;;;;;;;;;;;;;;;8.80;53.49;100910.22;5067915;28;19920;-73
2022/04/19 05:40:03;;;;;;;;;;;;;;;8.77;53.08;100917.19;5061916;28;19931;-81
2022/04/19 05:42:28;;;;;;;;;;;;;;;8.85;54.09;100914.50;5059803;28;19925;-73
2022/04/19 05:44:56;;;;;;;;;;;;;;;9.00;53.86;100903.94;5051446;28;19975;-77
2022/04/19 05:47:21;;;;;;;;;;;;;;;8.92;54.51;100908.38;5031443;28;19928;-77
2022/04/19 05:49:47;;;;;;;;;;;;;;;8.96;54.67;100908.31;5058778;28;19925;-77
2022/04/19 05:52:13;;;;;;;;;;;;;;;9.02;55.02;100907.38;5055984;28;20574;-77
2022/04/19 05:54:38;;;;;;;;;;;;;;;8.93;54.79;100913.53;5061618;28;19917;-77
2022/04/19 05:57:03;;;;;;;;;;;;;;;8.97;54.60;100912.63;5045521;28;19925;-78
2022/04/19 05:59:28;;;;;;;;;;;;;;;8.74;54.44;100918.06;5048732;28;20436;-78
2022/04/19 06:04:53;;;;;;;;;;;;;;;8.96;55.54;100918.66;5048284;28;19962;-77
2022/04/19 06:07:21;;;;;;;;;;;;;;;8.91;54.65;100927.38;5042910;28;20024;-74
2022/04/19 06:09:47;;;;;;;;;;;;;;;8.96;54.29;100926.44;5051715;28;20293;-73
2022/04/19 06:12:12;;;;;;;;;;;;;;;8.87;55.07;100923.97;5051118;28;19928;-73
2022/04/19 06:14:38;;;;;;;;;;;;;;;8.96;54.51;100934.22;5065680;28;20347;-77
2022/04/19 06:17:04;;;;;;;;;;;;;;;8.86;54.40;100936.94;5055755;28;19924;-81
2022/04/19 06:19:30;;;;;;;;;;;;;;;9.11;54.87;100938.34;5047913;28;19965;-81
2022/04/19 06:21:56;;;;;;;;;;;;;;;9.17;54.29;100931.38;5047275;28;20385;-78
2022/04/19 06:24:21;;;;;;;;;;;;;;;9.30;54.02;100932.94;5029362;28;19928;-77
2022/04/19 06:26:47;;;;;;;;;;;;;;;9.20;53.51;100933.06;5030388;28;19936;-81
2022/04/19 06:29:12;;;;;;;;;;;;;;;9.22;54.68;100929.56;5050732;28;19936;-73
2022/04/19 06:31:37;;;;;;;;;;;;;;;9.29;54.98;100935.53;5050011;28;19957;-73
2022/04/19 06:34:03;;;;;;;;;;;;;;;9.41;55.05;100929.31;5052067;28;19920;-76
2022/04/19 06:36:28;;;;;;;;;;;;;;;9.18;55.67;100922.72;5052665;28;19931;-81
2022/04/19 06:38:53;;;;;;;;;;;;;;;9.27;55.50;100926.94;5055334;28;20296;-81
2022/04/19 06:41:19;;;;;;;;;;;;;;;9.18;55.29;100927.03;5054317;28;20011;-81
2022/04/19 06:43:45;;;;;;;;;;;;;;;9.32;54.94;100927.72;5052380;28;19927;-81
2022/04/19 06:46:12;;;;;;;;;;;;;;;9.09;55.71;100925.44;5049901;28;20300;-77
2022/04/19 06:48:38;;;;;;;;;;;;;;;9.13;55.58;100923.63;5034036;28;20377;-77
2022/04/19 06:51:04;;;;;;;;;;;;;;;9.20;56.91;100927.88;5051528;28;19924;-77
2022/04/19 06:53:30;;;;;;;;;;;;;;;9.33;57.07;100925.09;5050617;28;19966;-77
2022/04/19 06:55:58;;;;;;;;;;;;;;;9.31;56.46;100924.25;5055534;28;20025;-77
2022/04/19 06:58:23;;;;;;;;;;;;;;;9.38;55.60;100924.19;5034393;28;19960;-81
2022/04/19 07:00:50;;;;;;;;;;;;;;;9.49;55.44;100919.69;5046854;28;19924;-81
2022/04/19 07:03:15;;;;;;;;;;;;;;;9.44;56.86;100926.69;5052848;28;19921;-81
2022/04/19 07:05:41;;;;;;;;;;;;;;;9.29;55.27;100927.75;5041721;28;20062;-77
2022/04/19 07:08:07;;;;;;;;;;;;;;;9.46;54.98;100924.91;5035689;28;20007;-81
2022/04/19 07:10:33;;;;;;;;;;;;;;;9.55;54.46;100919.59;5051249;28;20557;-81
2022/04/19 07:12:59;;;;;;;;;;;;;;;9.54;55.78;100917.91;5053947;28;19928;-81
2022/04/19 07:15:24;;;;;;;;;;;;;;;9.45;56.08;100924.09;5053574;28;19928;-81
2022/04/19 07:17:49;;;;;;;;;;;;;;;9.59;54.40;100913.50;5052661;28;20572;-81
2022/04/19 07:28:27;;;;;;;;;;;;;;;9.69;56.20;100925.47;5048642;28;20455;-77
2022/04/19 07:30:52;;;;;;;;;;;;;;;9.79;54.25;100924.44;5048595;28;20024;-77
2022/04/19 07:33:18;;;;;;;;;;;;;;;9.78;55.29;100926.16;5034355;28;20019;-77
2022/04/19 07:35:44;;;;;;;;;;;;;;;9.76;52.19;100920.16;5051834;28;19974;-77
2022/04/19 07:38:10;;;;;;;;;;;;;;;9.76;51.75;100916.69;5052760;28;20175;-77
2022/04/19 07:40:36;;;;;;;;;;;;;;;9.97;52.38;100920.72;5051449;28;19924;-74
2022/04/19 07:43:02;;;;;;;;;;;;;;;9.94;51.46;100921.63;5054407;28;19927;-74
2022/04/19 07:45:28;;;;;;;;;;;;;;;9.94;50.85;100923.38;5050599;28;19924;-73
2022/04/19 07:47:53;;;;;;;;;;;;;;;9.93;50.34;100916.50;5035875;28;19920;-74
2022/04/19 07:50:18;;;;;;;;;;;;;;;10.07;51.30;100919.72;5032742;28;19929;-74
2022/04/19 07:52:44;;;;;;;;;;;;;;;10.15;50.05;100925.63;5053973;28;19912;-74
2022/04/19 07:55:09;;;;;;;;;;;;;;;10.07;52.65;100924.91;5039743;28;20696;-74
2022/04/19 07:57:34;;;;;;;;;;;;;;;9.98;53.10;100927.66;5053051;28;19932;-74
2022/04/19 08:00:00;;;;;;;;;;;;;;;10.05;51.97;100926.69;5058491;28;20023;-73
2022/04/19 08:02:25;;;;;;;;;;;;;;;10.20;50.68;100929.84;5050918;28;19921;-74
2022/04/19 08:04:50;;;;;;;;;;;;;;;10.07;49.92;100927.50;5048263;28;20018;-76
2022/04/19 08:07:16;;;;;;;;;;;;;;;10.30;50.01;100914.97;5050048;28;19925;-78
2022/04/19 08:09:41;;;;;;;;;;;;;;;10.25;50.46;100914.22;5049123;28;19940;-78
2022/04/19 08:12:08;;;;;;;;;;;;;;;10.32;49.55;100916.66;5051533;28;19931;-78
2022/04/19 08:14:33;;;;;;;;;;;;;;;10.37;51.87;100920.03;5051514;28;20370;-77
2022/04/19 08:16:59;;;;;;;;;;;;;;;10.45;51.15;100922.50;5066818;28;19917;-78
2022/04/19 08:19:24;;;;;;;;;;;;;;;10.31;52.41;100916.72;5046535;28;19925;-78
2022/04/19 08:21:50;;;;;;;;;;;;;;;10.44;51.37;100913.00;5047082;28;19931;-73
2022/04/19 08:24:16;;;;;;;;;;;;;;;10.45;52.31;100918.16;5057478;28;19975;-74
2022/04/19 08:26:44;;;;;;;;;;;;;;;10.42;50.69;100919.97;5047563;28;20349;-74
2022/04/19 08:29:11;;;;;;;;;;;;;;;10.42;52.75;100919.97;5047936;28;20019;-74
2022/04/19 08:31:36;;;;;;;;;;;;;;;10.47;50.84;100913.78;5052822;28;20027;-74
2022/04/19 08:34:02;;;;;;;;;;;;;;;10.56;49.39;100910.16;5045716;28;20351;-73
2022/04/19 08:36:27;;;;;;;;;;;;;;;10.59;51.06;100910.09;5049494;28;20020;-77
2022/04/19 08:38:52;;;;;;;;;;;;;;;10.51;52.53;100906.81;5049633;28;19929;-77
2022/04/19 08:41:20;;;;;;;;;;;;;;;10.57;52.07;100903.25;5057578;28;19928;-77
2022/04/19 08:43:45;;;;;;;;;;;;;;;10.50;53.09;100902.50;5034796;28;20019;-77
2022/04/19 08:46:11;;;;;;;;;;;;;;;10.49;50.59;100898.19;5050458;28;20035;-81
2022/04/19 08:48:38;;;;;;;;;;;;;;;10.64;48.02;100892.69;5051791;28;19956;-81
2022/04/19 08:51:05;;;;;;;;;;;;;;;10.70;48.45;100889.97;5053544;28;19935;-81
2022/04/19 08:59:02;;;;;;;;;;;;;;;10.96;47.96;100887.72;5050577;28;19931;-77
2022/04/19 09:01:29;;;;;;;;;;;;;;;10.99;47.23;100886.81;5049837;28;20375;-73
2022/04/19 09:03:54;;;;;;;;;;;;;;;11.00;48.13;100885.91;5051952;28;20059;-74
2022/04/19 09:06:20;;;;;;;;;;;;;;;11.01;48.02;100882.44;5052706;28;20367;-74
2022/04/19 09:09:04;;;;;;;;;;;;;;;11.05;46.14;100881.47;5057502;28;19932;-74
2022/04/19 09:11:33;;;;;;;;;;;;;;;11.06;47.29;100884.94;5049338;28;19955;-81
2022/04/19 09:14:06;;;;;;;;;;;;;;;11.10;46.13;100881.38;5052703;28;19924;-73
2022/04/19 09:16:31;;;;;;;;;;;;;;;11.13;45.05;100882.16;5055400;28;19931;-73
2022/04/19 09:18:56;;;;;;;;;;;;;;;11.22;44.47;100881.97;5052111;28;20309;-73
2022/04/19 09:21:34;;;;;;;;;;;;;;;11.18;44.06;100875.13;5056369;28;19968;-74
2022/04/19 09:23:59;;;;;;;;;;;;;;;11.18;42.83;100879.44;5054308;28;19932;-74
2022/04/19 09:26:40;;;;;;;;;;;;;;;11.26;44.02;100878.44;5060222;28;20247;-73
2022/04/19 09:29:17;;;;;;;;;;;;;;;11.31;43.91;100870.53;5061110;28;19931;-74
2022/04/19 09:31:42;;;;;;;;;;;;;;;11.35;44.91;100870.47;5059688;28;20389;-74
2022/04/19 09:34:08;;;;;;;;;;;;;;;11.42;42.58;100864.19;5052623;28;19933;-73
2022/04/19 09:36:33;;;;;;;;;;;;;;;11.41;42.32;100862.47;5052146;28;19920;-74
2022/04/19 09:38:59;;;;;;;;;;;;;;;11.42;44.52;100868.53;5052700;28;20452;-73
2022/04/19 09:41:31;;;;;;;;;;;;;;;11.43;44.54;100865.06;5059208;28;20389;-74
2022/04/19 09:44:06;;;;;;;;;;;;;;;11.52;42.56;100865.72;5041573;28;19927;-74
2022/04/19 09:46:31;;;;;;;;;;;;;;;11.54;42.07;100861.31;5051090;28;19949;-74
2022/04/19 09:48:57;;;;;;;;;;;;;;;11.51;42.59;100847.53;5053368;28;20536;-76
2022/04/19 09:51:30;;;;;;;;;;;;;;;11.62;41.35;100849.88;5051947;28;19935;-81
2022/04/19 09:53:56;;;;;;;;;;;;;;;11.69;41.82;100852.28;5051736;28;20424;-81
2022/04/19 09:56:21;;;;;;;;;;;;;;;11.66;43.38;100847.16;5055850;28;19924;-81
2022/04/19 09:58:47;;;;;;;;;;;;;;;11.69;43.93;100841.03;5052768;28;20011;-81
2022/04/19 10:09:32;;;;;;;;;;;;;;;11.85;41.63;100834.56;5047953;28;20023;-77
2022/04/19 10:11:58;;;;;;;;;;;;;;;11.85;41.34;100834.56;5054286;28;19999;-77
2022/04/19 10:14:23;;;;;;;;;;;;;;;11.88;42.49;100830.13;5055042;28;20023;-74
2022/04/19 10:16:51;;;;;;;;;;;;;;;11.85;43.36;100838.03;5054996;28;19925;-74
2022/04/19 10:19:18;;;;;;;;;;;;;;;11.94;42.09;100832.59;5049286;28;19921;-74
2022/04/19 10:21:45;;;;;;;;;;;;;;;11.95;42.24;100828.22;5050067;28;19987;-74
2022/04/19 10:24:15;;;;;;;;;;;;;;;12.06;41.22;100827.06;5052304;28;19920;-81
2022/04/19 10:26:43;;;;;;;;;;;;;;;12.03;42.50;100828.88;5048594;28;19951;-77
2022/04/19 10:29:18;;;;;;;;;;;;;;;12.05;41.16;100827.09;5050016;28;19924;-77
2022/04/19 10:31:53;;;;;;;;;;;;;;;12.13;41.13;100824.31;5050062;28;19960;-77
2022/04/19 10:34:23;;;;;;;;;;;;;;;12.13;41.39;100812.13;5059357;28;19933;-77
2022/04/19 10:36:54;;;;;;;;;;;;;;;12.12;41.62;100818.25;5048054;28;19928;-78
2022/04/19 10:39:20;;;;;;;;;;;;;;;12.19;40.16;100813.69;5047051;28;20145;-77
2022/04/19 10:41:52;;;;;;;;;;;;;;;12.20;40.51;100818.88;5043565;28;19953;-77
2022/04/19 10:44:22;;;;;;;;;;;;;;;12.24;40.41;100817.06;5038179;28;20001;-77
2022/04/19 10:46:47;;;;;;;;;;;;;;;12.28;39.94;100809.09;5041782;28;19935;-78
2022/04/19 10:49:22;;;;;;;;;;;;;;;12.28;40.19;100805.63;5049852;28;20285;-78
2022/04/19 10:51:48;;;;;;;;;;;;;;;12.24;40.70;100809.25;5031486;28;20007;-77
2022/04/19 10:54:13;;;;;;;;;;;;;;;12.28;39.16;100800.44;5056186;28;19928;-81
2022/04/19 10:56:57;;;;;;;;;;;;;;;12.43;38.59;100800.88;5011736;28;19936;-81
2022/04/19 10:59:23;;;;;;;;;;;;;;;12.33;40.46;100802.03;5049884;28;19927;-81
2022/04/19 11:01:48;;;;;;;;;;;;;;;12.39;40.48;100799.25;5058384;28;19925;-79
2022/04/19 11:04:33;;;;;;;;;;;;;;;12.35;41.05;100794.16;5032659;28;20309;-79
2022/04/19 11:06:59;;;;;;;;;;;;;;;12.43;40.92;100789.59;5048610;28;20293;-79
2022/04/19 11:09:27;;;;;;;;;;;;;;;12.50;40.25;100784.19;5050142;28;20304;-78
2022/04/19 11:11:54;;;;;;;;;;;;;;;12.54;40.72;100782.38;5046235;28;20429;-78
2022/04/19 11:14:35;;;;;;;;;;;;;;;12.51;40.29;100791.06;5046281;28;19920;-78
2022/04/19 11:17:19;;;;;;;;;;;;;;;12.51;40.51;100774.63;5044753;28;19917;-78
2022/04/19 11:19:55;;;;;;;;;;;;;;;12.60;38.81;100772.59;5051841;28;19955;-78
2022/04/19 11:22:29;;;;;;;;;;;;;;;12.73;38.29;100765.28;5044484;28;19913;-78
2022/04/19 11:25:04;;;;;;;;;;;;;;;12.60;39.70;100772.59;5046261;28;19921;-78
2022/04/19 11:27:48;;;;;;;;;;;;;;;12.63;41.05;100776.91;5031100;28;20337;-78
2022/04/19 11:30:14;;;;;;;;;;;;;;;12.74;39.74;100768.75;5049000;28;19920;-77
2022/04/19 11:32:39;;;;;;;;;;;;;;;12.70;39.54;100767.97;5049741;28;19935;-77
2022/04/19 11:35:04;;;;;;;;;;;;;;;12.76;38.84;100767.78;5051396;28;20479;-77
2022/04/19 11:37:30;;;;;;;;;;;;;;;12.56;40.46;100763.19;5034469;28;19960;-77
2022/04/19 11:48:14;;;;;;;;;;;;;;;13.06;38.77;100752.97;5042173;28;19928;-77
2022/04/19 11:50:40;;;;;;;;;;;;;;;13.15;37.90;100745.72;5050100;28;19932;-74
2022/04/19 11:53:15;;;;;;;;;;;;;;;13.13;39.37;100751.88;5049758;28;19952;-79
2022/04/19 11:55:49;;;;;;;;;;;;;;;13.03;39.91;100753.94;5046091;28;19925;-77
2022/04/19 11:58:14;;;;;;;;;;;;;;;13.05;38.92;100751.25;5048158;28;19917;-81
2022/04/19 12:00:39;;;;;;;;;;;;;;;13.10;38.10;100746.78;5045504;28;20412;-81
2022/04/19 12:03:24;;;;;;;;;;;;;;;13.12;38.10;100738.00;5044714;28;20061;-77
2022/04/19 12:05:50;;;;;;;;;;;;;;;13.19;36.97;100736.88;5049772;28;19932;-74
2022/04/19 12:08:33;;;;;;;;;;;;;;;13.28;36.81;100742.72;5053015;28;19925;-74
2022/04/19 12:10:59;;;;;;;;;;;;;;;13.14;37.80;100735.31;5053735;28;19991;-78
2022/04/19 12:13:24;;;;;;;;;;;;;;;13.14;39.52;100737.94;5054417;28;19917;-77
2022/04/19 12:15:50;;;;;;;;;;;;;;;13.30;39.39;100727.84;5053053;28;19935;-74
2022/04/19 12:18:31;;;;;;;;;;;;;;;13.16;39.51;100731.78;5053557;28;19925;-74
2022/04/19 12:20:57;;;;;;;;;;;;;;;13.23;38.77;100730.66;5048753;28;19924;-78
2022/04/19 12:23:22;;;;;;;;;;;;;;;13.20;38.96;100722.94;5069164;28;20356;-78
2022/04/19 12:26:07;;;;;;;;;;;;;;;13.33;37.55;100720.78;5054765;28;19979;-78
2022/04/19 12:28:36;;;;;;;;;;;;;;;13.19;40.29;100725.63;5051008;28;19920;-81
2022/04/19 12:31:02;;;;;;;;;;;;;;;13.39;39.05;100722.34;5054588;28;19932;-82
2022/04/19 12:33:27;;;;;;;;;;;;;;;13.27;39.40;100717.53;5061563;28;19947;-81
2022/04/19 12:35:56;;;;;;;;;;;;;;;13.27;39.24;100712.31;5044635;28;19954;-77
2022/04/19 12:38:28;;;;;;;;;;;;;;;13.52;37.13;100711.44;5047945;28;20052;-81
2022/04/19 12:40:53;;;;;;;;;;;;;;;13.39;37.48;100709.28;5050608;28;19925;-81
2022/04/19 12:43:19;;;;;;;;;;;;;;;13.20;40.14;100712.50;5053947;28;19927;-77
2022/04/19 12:45:46;;;;;;;;;;;;;;;13.29;37.36;100713.09;5052076;28;19920;-77
2022/04/19 12:48:18;;;;;;;;;;;;;;;13.36;37.52;100701.56;5055281;28;20051;-77
2022/04/19 12:50:44;;;;;;;;;;;;;;;13.32;37.83;100703.41;5050997;28;20521;-77
2022/04/19 12:53:22;;;;;;;;;;;;;;;13.29;37.63;100697.44;5044394;28;19933;-77
2022/04/19 12:58:50;;;;;;;;;;;;;;;13.56;36.39;100691.31;5049714;28;19971;-78
2022/04/19 13:01:15;;;;;;;;;;;;;;;13.46;36.88;100687.31;5049078;28;19929;-78
2022/04/19 13:03:40;;;;;;;;;;;;;;;13.58;36.10;100679.06;5046913;28;20074;-78
2022/04/19 13:14:17;;;;;;;;;;;;;;;13.72;36.21;100667.28;5046809;28;20097;-77
2022/04/19 13:16:43;;;;;;;;;;;;;;;13.67;37.36;100670.97;5052776;28;20413;-77
2022/04/19 13:19:08;;;;;;;;;;;;;;;13.59;36.68;100663.34;5050373;28;19923;-77
2022/04/19 13:21:33;;;;;;;;;;;;;;;13.65;35.76;100667.50;5040964;28;20399;-77
2022/04/19 13:23:59;;;;;;;;;;;;;;;13.80;35.69;100669.59;5030412;28;20012;-77
2022/04/19 13:26:24;;;;;;;;;;;;;;;13.96;37.08;100665.53;5044396;28;20425;-77
2022/04/19 13:28:49;;;;;;;;;;;;;;;14.03;34.16;100653.09;5029932;28;21330;-77
2022/04/19 13:31:15;;;;;;;;;;;;;;;13.81;35.24;100654.78;5055459;28;19928;-74
2022/04/19 13:33:40;;;;;;;;;;;;;;;13.97;34.60;100648.09;5016911;28;880710;-74
2022/04/19 13:36:06;;;;;;;;;;;;;;;13.94;35.97;100648.22;5029097;28;19936;-74
2022/04/19 13:38:35;;;;;;;;;;;;;;;13.83;35.37;100655.56;5056631;28;20453;-74